Terminal Aerodrome Forecast
Issued by NWS Cleveland, OH

Home | Current Version | Previous Version | Graphics & Text | Print | Product List | Glossary On
Versions: 1 2 3 4 5 6 7 8 9 10 11 12
000
FTUS41 KCLE 160500
TAFMFD
TAF
KMFD 160520Z 1606/1706 28003KT P6SM SKC
     FM161600 12010KT P6SM SCT250
     FM170200 10008KT P6SM BKN250=

USA.gov is the U.S. government's official web portal to all federal, state and local government web resources and services.